Accueil
METAR-TAF:

METAR-TAF

Aéroports :

Wake Island, États-Unis

latitude: 19-17N, longitude: 166-39E, altitude: 4 m

Observation

Le bulletin a été fait il y a 45 minutes, à 08:58 UTC
Vent 17 kt de est/nord-est
Température 26°C
Humidité 70%
Pression 1011 hPa
Visibilité 10 km ou plus
Ciel clair

METAR: PWAK 240858Z AUTO 06017KT 9999 CLR 26/20 A2984 RMK AO2 SLP111 52014

Heure: 21:43 (09:43 UTC)

Prévision

Le bulletin a été fait il y a 3 heures et 43 minutes, à 06:00 UTC
Prévision valable du 24 à 06 UTC au 25 à 12 UTC
Vent 12 kt de est/nord-est
Visibilité 10 km ou plus
Nuages épars à une hauteur de 2500 ft

TAF: PWAK 240600Z 2406/2512 06012KT 9999 SCT025 QNH2976INS TX28/2502Z TN24/2418Z

Observations et prévisions météorologiques de plus de 4000 aéroports (messages METAR et TAF).

Les stations disponibles sont représentées par des disques jaunes et rouges sur la carte.

Passer la souris dessus pour voir le nom de la station.

Cliquer dessus pour voir les observations et prévisions météorologiques.

Pour changer de carte: cliquez sur les boutons verts avec une croix noire pour zoomer, sur le bouton vert avec un tiret pour effectuer un zoom arrière, ou sur les flèches vertes pour les cartes adjacentes.


METAR-TAF: